Time;durP1;ratioP1;P1;durP2;ratioP2;P2;SDS_P1;SDS_P2;PMS_P1;PMS_P2;Temp;Humidity;BMP_temperature;BMP_pressure;BME280_temperature;BME280_humidity;BME280_pressure;Samples;Min_cycle;Max_cycle;Signal;HPM_P1;HPM_P2
2022/11/20 00:00:20;;;;;;;58.63;30.93;;;4.70;99.90;;;;;;5053961;28;20210;-93
2022/11/20 00:02:47;;;;;;;61.70;31.07;;;4.80;99.90;;;;;;5055219;28;20199;-92
2022/11/20 00:05:14;;;;;;;61.37;31.00;;;4.70;99.90;;;;;;5055201;28;20206;-91
2022/11/20 00:07:41;;;;;;;56.80;29.50;;;4.60;99.90;;;;;;5054883;28;20207;-90
2022/11/20 00:10:08;;;;;;;54.80;29.90;;;4.60;99.90;;;;;;5055028;28;20233;-90
2022/11/20 00:12:35;;;;;;;53.30;30.00;;;4.70;99.90;;;;;;5054742;28;20206;-91
2022/11/20 00:15:02;;;;;;;56.80;31.03;;;4.60;99.90;;;;;;5054986;28;20202;-91
2022/11/20 00:17:30;;;;;;;50.70;28.23;;;4.70;99.90;;;;;;5056144;28;20218;-91
2022/11/20 00:19:57;;;;;;;54.87;30.67;;;4.50;99.90;;;;;;5058038;28;20208;-89
2022/11/20 00:22:24;;;;;;;57.80;29.60;;;4.70;99.90;;;;;;5056798;28;20197;-91
2022/11/20 00:24:51;;;;;;;51.23;28.43;;;4.60;99.90;;;;;;5057873;28;20725;-90
2022/11/20 00:27:18;;;;;;;52.77;28.27;;;4.50;99.90;;;;;;5057737;28;20202;-90
2022/11/20 00:29:45;;;;;;;54.17;29.23;;;4.60;99.90;;;;;;5057416;28;20202;-88
2022/11/20 00:32:12;;;;;;;71.80;43.45;;;4.70;99.90;;;;;;5056756;28;20429;-89
2022/11/20 00:34:43;;;;;;;61.87;32.97;;;4.70;99.90;;;;;;5057343;28;20209;-90
2022/11/20 00:37:10;;;;;;;59.77;30.10;;;4.70;99.90;;;;;;5056959;28;20297;-90
2022/11/20 00:39:37;;;;;;;54.43;29.57;;;4.80;99.90;;;;;;5057470;28;20211;-91
2022/11/20 00:42:04;;;;;;;52.57;29.33;;;4.80;99.90;;;;;;5058076;28;20678;-91
2022/11/20 00:44:31;;;;;;;50.50;29.37;;;4.80;99.90;;;;;;5057528;28;20206;-89
2022/11/20 00:47:00;;;;;;;49.73;29.33;;;4.50;99.90;;;;;;5057071;28;20198;-89
2022/11/20 00:49:29;;;;;;;45.80;28.00;;;4.40;99.90;;;;;;5057265;28;20252;-90
2022/11/20 00:51:59;;;;;;;46.87;26.87;;;4.40;99.90;;;;;;5057088;28;20234;-88
2022/11/20 00:54:26;;;;;;;47.43;27.70;;;4.30;99.90;;;;;;5056842;28;20226;-89
2022/11/20 00:56:54;;;;;;;52.53;27.43;;;4.40;99.90;;;;;;5058712;28;20204;-90
2022/11/20 00:59:23;;;;;;;44.07;27.27;;;4.50;99.90;;;;;;5061813;28;20195;-90
2022/11/20 01:01:50;;;;;;;50.03;29.47;;;4.50;99.90;;;;;;5059030;28;20551;-89
2022/11/20 01:04:29;;;;;;;53.50;28.90;;;4.60;99.90;;;;;;5057781;28;20570;-89
2022/11/20 01:07:03;;;;;;;47.60;26.93;;;4.80;99.90;;;;;;5059861;28;20293;-90
2022/11/20 01:09:30;;;;;;;52.10;29.40;;;4.80;99.90;;;;;;5062547;28;20206;-91
2022/11/20 01:11:58;;;;;;;48.27;28.47;;;4.80;99.90;;;;;;5061803;28;20322;-91
2022/11/20 01:14:26;;;;;;;52.07;29.13;;;4.90;99.90;;;;;;5061728;28;20207;-89
2022/11/20 01:16:53;;;;;;;52.43;28.40;;;4.90;99.90;;;;;;5058579;28;20198;-89
2022/11/20 01:19:22;;;;;;;52.90;30.33;;;5.00;99.90;;;;;;5055286;28;20205;-89
2022/11/20 01:21:52;;;;;;;49.73;28.60;;;5.10;99.90;;;;;;5057726;28;20229;-90
2022/11/20 01:24:24;;;;;;;49.73;28.53;;;5.10;99.90;;;;;;5059995;28;20226;-90
2022/11/20 01:26:52;;;;;;;51.60;29.80;;;5.10;99.90;;;;;;5059782;28;20198;-89
2022/11/20 01:29:21;;;;;;;53.93;28.60;;;5.00;99.90;;;;;;5059633;28;20289;-89
2022/11/20 01:31:49;;;;;;;51.40;30.17;;;4.80;99.90;;;;;;5059460;28;20222;-89
2022/11/20 01:34:23;;;;;;;57.67;30.40;;;4.80;99.90;;;;;;5060548;28;20302;-89
2022/11/20 01:36:54;;;;;;;53.67;30.27;;;4.80;99.90;;;;;;5060643;28;20645;-90
2022/11/20 01:39:24;;;;;;;50.60;28.83;;;4.90;99.90;;;;;;5058864;28;20210;-90
2022/11/20 01:44:53;;;;;;;53.53;28.07;;;5.10;99.90;;;;;;5043351;28;20264;-90
2022/11/20 01:47:36;;;;;;;53.57;30.27;;;5.10;99.90;;;;;;5057534;28;20238;-90
2022/11/20 01:50:11;;;;;;;53.37;29.77;;;5.00;99.90;;;;;;5054647;28;20309;-90
2022/11/20 01:52:43;;;;;;;57.60;29.80;;;5.00;99.90;;;;;;5058115;28;20202;-89
2022/11/20 01:55:16;;;;;;;59.33;30.70;;;5.10;99.90;;;;;;5058370;28;20200;-90
2022/11/20 01:57:45;;;;;;;56.90;30.37;;;5.10;99.90;;;;;;5059704;28;20205;-90
2022/11/20 02:00:18;;;;;;;52.33;29.40;;;5.00;99.90;;;;;;5060187;28;20210;-89
2022/11/20 02:05:36;;;;;;;55.60;29.90;;;5.10;99.90;;;;;;5059638;28;20216;-89
2022/11/20 02:08:04;;;;;;;55.40;29.47;;;5.20;99.90;;;;;;5059332;28;20203;-90
2022/11/20 02:10:37;;;;;;;60.93;31.60;;;5.20;99.90;;;;;;5059176;28;20206;-89
2022/11/20 02:15:50;;;;;;;61.53;30.47;;;5.20;99.90;;;;;;5060202;28;20213;-89
2022/11/20 02:18:19;;;;;;;63.83;29.73;;;5.30;99.90;;;;;;5060070;28;20210;-90
2022/11/20 02:20:54;;;;;;;61.13;30.93;;;5.30;99.90;;;;;;5059474;28;20359;-89
2022/11/20 02:23:42;;;;;;;69.60;33.33;;;5.30;99.90;;;;;;5062124;28;20208;-88
2022/11/20 02:26:14;;;;;;;65.40;31.17;;;5.20;99.90;;;;;;5064663;28;20206;-90
2022/11/20 02:28:44;;;;;;;70.80;32.97;;;5.30;99.90;;;;;;5066981;28;20293;-89
2022/11/20 02:31:12;;;;;;;58.03;30.30;;;5.30;99.90;;;;;;5064164;28;20238;-90
2022/11/20 02:33:40;;;;;;;66.67;32.67;;;5.20;99.90;;;;;;5063998;28;20569;-90
2022/11/20 02:36:13;;;;;;;63.30;31.80;;;5.20;99.90;;;;;;5065078;28;20247;-90
2022/11/20 02:38:52;;;;;;;54.70;31.87;;;5.20;99.90;;;;;;5065022;28;20210;-90
2022/11/20 02:41:31;;;;;;;63.30;31.97;;;5.20;99.90;;;;;;5060921;28;20256;-91
2022/11/20 02:43:58;;;;;;;64.33;32.50;;;5.30;99.90;;;;;;5061361;28;20202;-91
2022/11/20 02:46:31;;;;;;;61.97;31.33;;;5.40;99.90;;;;;;5061037;28;20210;-91
2022/11/20 02:49:01;;;;;;;66.20;34.13;;;5.40;99.90;;;;;;5061112;28;20491;-91
2022/11/20 02:51:33;;;;;;;65.70;32.33;;;5.40;99.90;;;;;;5061681;28;20222;-90
2022/11/20 02:54:03;;;;;;;60.90;30.80;;;5.50;99.90;;;;;;5062792;28;20222;-88
2022/11/20 02:56:33;;;;;;;62.03;31.90;;;5.40;99.90;;;;;;5061244;28;20266;-91
2022/11/20 02:59:13;;;;;;;63.13;31.43;;;5.40;99.90;;;;;;5061176;28;20202;-90
2022/11/20 03:01:40;;;;;;;63.10;30.40;;;5.20;99.90;;;;;;5062508;28;20210;-90
2022/11/20 03:04:08;;;;;;;60.33;30.90;;;5.30;99.90;;;;;;5064266;28;20214;-88
2022/11/20 03:06:38;;;;;;;59.47;31.60;;;5.40;99.90;;;;;;5065024;28;20213;-91
2022/11/20 03:09:05;;;;;;;57.63;29.67;;;5.40;99.90;;;;;;5064705;28;20297;-90
2022/11/20 03:11:33;;;;;;;61.73;31.77;;;5.40;99.90;;;;;;5060771;28;20225;-89
2022/11/20 03:14:04;;;;;;;54.97;30.70;;;5.40;99.90;;;;;;5060883;28;20211;-90
2022/11/20 03:16:33;;;;;;;56.40;31.53;;;5.50;99.90;;;;;;5062743;28;20229;-89
2022/11/20 03:19:00;;;;;;;64.80;29.53;;;5.40;99.90;;;;;;5063417;28;20297;-90
2022/11/20 03:21:27;;;;;;;59.37;30.23;;;5.40;99.90;;;;;;5061644;28;20285;-91
2022/11/20 03:23:55;;;;;;;62.07;31.53;;;5.50;99.90;;;;;;5062577;28;20186;-91
2022/11/20 03:26:24;;;;;;;61.40;30.13;;;5.50;99.90;;;;;;5059905;28;20208;-90
2022/11/20 03:28:57;;;;;;;62.87;30.90;;;5.50;99.90;;;;;;5059053;28;20210;-91
2022/11/20 03:31:27;;;;;;;62.70;30.37;;;5.50;99.90;;;;;;5058782;28;20310;-91
2022/11/20 03:33:56;;;;;;;61.00;30.93;;;5.50;99.90;;;;;;5059033;28;20214;-91
2022/11/20 03:36:23;;;;;;;64.85;33.30;;;5.40;99.90;;;;;;5058462;28;20832;-90
2022/11/20 03:38:50;;;;;;;63.27;31.83;;;5.40;99.90;;;;;;5060202;28;20206;-91
2022/11/20 03:41:20;;;;;;;56.43;30.90;;;5.50;99.90;;;;;;5059999;28;20210;-90
2022/11/20 03:43:49;;;;;;;61.97;31.47;;;5.50;99.90;;;;;;5060246;28;20211;-91
2022/11/20 03:46:18;;;;;;;60.60;30.63;;;5.50;99.90;;;;;;5060003;28;20211;-89
2022/11/20 03:48:46;;;;;;;57.17;30.77;;;5.50;99.90;;;;;;5059058;28;20195;-89
2022/11/20 03:51:15;;;;;;;62.53;31.07;;;5.30;99.90;;;;;;5058009;28;20222;-87
2022/11/20 03:53:46;;;;;;;61.63;30.27;;;5.30;99.90;;;;;;5059064;28;20228;-91
2022/11/20 03:56:15;;;;;;;56.70;29.80;;;5.30;99.90;;;;;;5060123;28;20213;-90
2022/11/20 03:58:57;;;;;;;56.40;29.97;;;5.40;99.90;;;;;;5059733;28;20202;-89
2022/11/20 04:01:30;;;;;;;62.93;29.63;;;5.40;99.90;;;;;;5060584;28;20202;-90
2022/11/20 04:03:57;;;;;;;56.37;28.57;;;5.30;99.90;;;;;;5060639;28;20206;-90
2022/11/20 04:06:35;;;;;;;58.93;29.47;;;5.40;99.90;;;;;;5060275;28;20203;-90
2022/11/20 04:09:04;;;;;;;58.00;29.40;;;5.50;99.90;;;;;;5060862;28;20199;-91
2022/11/20 04:11:33;;;;;;;66.57;30.57;;;5.50;99.90;;;;;;5058137;28;20233;-90
2022/11/20 04:14:02;;;;;;;56.93;28.73;;;5.60;99.90;;;;;;5058994;28;20240;-91
2022/11/20 04:16:37;;;;;;;58.20;29.70;;;5.50;99.90;;;;;;5060724;28;20209;-89
2022/11/20 04:19:06;;;;;;;55.50;30.37;;;5.50;99.90;;;;;;5060113;28;20586;-90
2022/11/20 04:21:33;;;;;;;57.37;29.83;;;5.50;99.90;;;;;;5058103;28;20571;-90
2022/11/20 04:24:00;;;;;;;60.10;30.23;;;5.40;99.90;;;;;;5059544;28;20209;-90
2022/11/20 04:26:29;;;;;;;62.73;29.43;;;5.50;99.90;;;;;;5058938;28;20226;-90
2022/11/20 04:28:58;;;;;;;61.73;29.10;;;5.50;99.90;;;;;;5058922;28;20209;-91
2022/11/20 04:31:26;;;;;;;59.73;29.93;;;5.50;99.90;;;;;;5059346;28;20230;-90
2022/11/20 04:33:56;;;;;;;59.10;31.77;;;5.60;99.90;;;;;;5058829;28;20195;-91
2022/11/20 04:36:24;;;;;;;62.70;31.00;;;5.60;99.90;;;;;;5058638;28;20210;-88
2022/11/20 04:38:52;;;;;;;60.67;29.87;;;5.60;99.90;;;;;;5058241;28;20217;-91
2022/11/20 04:41:22;;;;;;;64.53;30.70;;;5.50;99.90;;;;;;5056636;28;20214;-91
2022/11/20 04:43:51;;;;;;;62.83;29.23;;;5.50;99.90;;;;;;5056444;28;20202;-91
2022/11/20 04:46:18;;;;;;;63.97;33.23;;;5.50;99.90;;;;;;5055851;28;20581;-90
2022/11/20 04:48:45;;;;;;;64.87;31.57;;;5.60;99.90;;;;;;5056698;28;20209;-90
2022/11/20 04:51:14;;;;;;;67.97;29.83;;;5.50;99.90;;;;;;5055719;28;20202;-90
2022/11/20 04:53:43;;;;;;;62.90;29.50;;;5.50;99.90;;;;;;5056061;28;20234;-90
2022/11/20 04:56:12;;;;;;;65.07;31.27;;;5.60;99.90;;;;;;5041837;28;20210;-90
2022/11/20 04:58:40;;;;;;;62.63;29.50;;;5.50;99.90;;;;;;5056459;28;20207;-90
2022/11/20 05:01:14;;;;;;;56.40;28.83;;;5.50;99.90;;;;;;5056595;28;20285;-90
2022/11/20 05:03:50;;;;;;;57.27;28.30;;;5.60;99.90;;;;;;5056919;28;20195;-92
2022/11/20 05:06:30;;;;;;;67.83;31.40;;;5.70;99.90;;;;;;5056790;28;20238;-90
2022/11/20 05:08:57;;;;;;;63.87;30.87;;;5.60;99.90;;;;;;5057056;28;20210;-91
2022/11/20 05:11:25;;;;;;;84.53;43.40;;;5.60;99.90;;;;;;5055096;28;20425;-91
2022/11/20 05:13:56;;;;;;;67.87;32.97;;;5.80;99.90;;;;;;5064330;28;20202;-90
2022/11/20 05:16:24;;;;;;;75.57;31.80;;;5.80;99.90;;;;;;5054559;28;20230;-88
2022/11/20 05:18:56;;;;;;;62.97;31.17;;;5.80;99.90;;;;;;5050872;28;20198;-90
2022/11/20 05:21:33;;;;;;;60.43;30.70;;;5.90;99.90;;;;;;5055414;28;20597;-90
2022/11/20 05:24:15;;;;;;;66.33;30.83;;;5.80;99.90;;;;;;5055273;28;20213;-91
2022/11/20 05:26:42;;;;;;;57.40;28.97;;;5.80;99.90;;;;;;5054743;28;20202;-91
2022/11/20 05:29:12;;;;;;;65.10;31.37;;;5.60;99.90;;;;;;5054942;28;20323;-90
2022/11/20 05:31:41;;;;;;;67.53;31.30;;;5.60;99.90;;;;;;5054975;28;20219;-91
2022/11/20 05:34:09;;;;;;;70.37;32.10;;;5.60;99.90;;;;;;5054678;28;20206;-90
2022/11/20 05:36:40;;;;;;;65.80;30.63;;;5.70;99.90;;;;;;5054015;28;20198;-89
2022/11/20 05:39:10;;;;;;;61.67;30.63;;;5.70;99.90;;;;;;5055762;28;20241;-90
2022/11/20 05:41:42;;;;;;;65.10;31.07;;;5.70;99.90;;;;;;5054257;28;20221;-91
2022/11/20 05:44:11;;;;;;;70.50;30.60;;;5.70;99.90;;;;;;5054823;28;20209;-91
2022/11/20 05:46:39;;;;;;;77.70;31.80;;;5.70;99.90;;;;;;5056799;28;20283;-88
2022/11/20 05:49:09;;;;;;;73.03;30.83;;;5.60;99.90;;;;;;5057375;28;20207;-91
2022/11/20 05:51:42;;;;;;;70.67;30.53;;;5.80;99.90;;;;;;5058013;28;20205;-90
2022/11/20 05:54:09;;;;;;;73.70;31.97;;;5.80;99.90;;;;;;5057535;28;20230;-89
2022/11/20 05:56:37;;;;;;;79.53;31.27;;;5.80;99.90;;;;;;5058180;28;20205;-91
2022/11/20 06:01:47;;;;;;;79.40;30.80;;;5.70;99.90;;;;;;5061856;28;20210;-89
2022/11/20 06:04:16;;;;;;;87.30;32.80;;;5.60;99.90;;;;;;5061109;28;20540;-89
2022/11/20 06:06:45;;;;;;;88.40;32.03;;;5.70;99.90;;;;;;5062518;28;20218;-89
2022/11/20 06:09:14;;;;;;;82.73;33.87;;;5.70;99.90;;;;;;5067540;28;20213;-92
2022/11/20 06:11:41;;;;;;;84.30;31.90;;;5.60;99.90;;;;;;5069731;28;20684;-92
2022/11/20 06:14:10;;;;;;;80.33;31.93;;;5.70;99.90;;;;;;5060760;28;20203;-91
2022/11/20 06:16:36;;;;;;;77.77;31.70;;;5.80;99.90;;;;;;5052876;28;20203;-89
2022/11/20 06:19:04;;;;;;;85.40;32.47;;;5.90;99.90;;;;;;5059597;28;20570;-89
2022/11/20 06:21:32;;;;;;;92.37;33.97;;;6.00;99.90;;;;;;5043177;28;20199;-90
2022/11/20 06:24:25;;;;;;;82.33;33.43;;;6.10;99.90;;;;;;5064747;28;20642;-91
2022/11/20 06:26:54;;;;;;;85.50;32.00;;;6.20;99.90;;;;;;5061820;28;20217;-91
2022/11/20 06:29:26;;;;;;;84.13;32.53;;;6.30;99.90;;;;;;5062091;28;20194;-90
2022/11/20 06:31:53;;;;;;;80.17;33.13;;;6.20;99.90;;;;;;5066214;28;20278;-91
2022/11/20 06:34:21;;;;;;;83.13;32.53;;;6.20;99.90;;;;;;5063305;28;20204;-90
2022/11/20 06:36:51;;;;;;;83.17;34.37;;;6.30;99.90;;;;;;5062704;28;20233;-91
2022/11/20 06:39:35;;;;;;;82.93;33.87;;;6.40;99.90;;;;;;5062114;28;20203;-90
2022/11/20 06:42:09;;;;;;;83.57;32.50;;;6.30;99.90;;;;;;5062094;28;20203;-90
2022/11/20 06:44:36;;;;;;;84.53;33.47;;;6.40;99.90;;;;;;5062869;28;20294;-90
2022/11/20 06:47:04;;;;;;;79.73;34.17;;;6.30;99.90;;;;;;5066255;28;20202;-90
2022/11/20 06:49:44;;;;;;;72.47;32.00;;;6.20;99.90;;;;;;5068364;28;20281;-91
2022/11/20 06:55:00;;;;;;;78.17;31.90;;;6.30;99.90;;;;;;5080114;28;20206;-91
2022/11/20 06:57:27;;;;;;;77.33;33.00;;;6.30;99.90;;;;;;5066285;28;20271;-90
2022/11/20 06:59:59;;;;;;;77.37;30.73;;;6.30;99.90;;;;;;5059663;28;20195;-91
2022/11/20 07:02:26;;;;;;;71.00;31.83;;;6.20;99.90;;;;;;5059658;28;20297;-90
2022/11/20 07:04:57;;;;;;;77.37;31.17;;;6.20;99.90;;;;;;5059791;28;20541;-90
2022/11/20 07:07:26;;;;;;;73.23;31.93;;;6.20;99.90;;;;;;5058671;28;20213;-90
2022/11/20 07:10:08;;;;;;;78.03;32.77;;;6.20;99.90;;;;;;5058348;28;20209;-90
2022/11/20 07:12:44;;;;;;;71.87;30.70;;;6.30;99.90;;;;;;5059880;28;20222;-90
2022/11/20 07:15:25;;;;;;;89.97;40.08;;;6.40;99.90;;;;;;5058852;28;20417;-88
2022/11/20 07:17:54;;;;;;;77.77;32.70;;;6.40;99.90;;;;;;5059813;28;20245;-89
2022/11/20 07:20:24;;;;;;;76.77;31.90;;;6.10;99.90;;;;;;5059935;28;20304;-90
2022/11/20 07:22:54;;;;;;;71.30;30.27;;;6.30;99.90;;;;;;5059004;28;20264;-90
2022/11/20 07:25:24;;;;;;;66.43;30.90;;;6.20;99.90;;;;;;5058837;28;20209;-90
2022/11/20 07:27:58;;;;;;;68.97;30.57;;;6.10;99.90;;;;;;5060258;28;20210;-91
2022/11/20 07:30:25;;;;;;;64.70;30.40;;;6.10;99.90;;;;;;5060963;28;20202;-92
2022/11/20 07:32:52;;;;;;;74.20;31.67;;;6.30;99.90;;;;;;5060335;28;20707;-89
2022/11/20 07:35:19;;;;;;;69.43;29.77;;;6.30;99.90;;;;;;5058715;28;20198;-90
2022/11/20 07:37:48;;;;;;;71.13;30.57;;;6.30;99.90;;;;;;5059330;28;20203;-91
2022/11/20 07:40:24;;;;;;;76.75;36.60;;;6.30;99.90;;;;;;5060072;28;20445;-90
2022/11/20 07:42:57;;;;;;;66.93;30.40;;;6.40;99.90;;;;;;5062825;28;20234;-90
2022/11/20 07:45:26;;;;;;;62.63;30.67;;;6.50;99.90;;;;;;5055853;28;20210;-90
2022/11/20 07:47:54;;;;;;;60.17;27.60;;;6.30;99.90;;;;;;5064872;28;20210;-94
2022/11/20 07:50:21;;;;;;;65.07;29.43;;;6.40;99.90;;;;;;5069979;28;20202;-94
2022/11/20 07:52:48;;;;;;;64.23;29.03;;;6.50;99.90;;;;;;5055537;28;20609;-91
2022/11/20 07:55:15;;;;;;;59.77;28.87;;;6.30;99.90;;;;;;5055518;28;20210;-92
2022/11/20 07:57:42;;;;;;;58.27;26.90;;;6.40;99.90;;;;;;5055816;28;20197;-91
2022/11/20 08:00:12;;;;;;;58.77;26.17;;;6.50;99.90;;;;;;5055186;28;20209;-91
2022/11/20 08:02:40;;;;;;;66.87;28.43;;;6.50;99.90;;;;;;5055239;28;20207;-92
2022/11/20 08:05:08;;;;;;;61.27;27.13;;;6.60;99.90;;;;;;5054579;28;20260;-91
2022/11/20 08:07:38;;;;;;;80.00;38.97;;;6.50;99.90;;;;;;5053902;28;20441;-89
2022/11/20 08:10:06;;;;;;;72.77;29.97;;;6.50;99.90;;;;;;5054769;28;20538;-91
2022/11/20 08:15:18;;;;;;;66.07;27.87;;;6.60;99.90;;;;;;5054565;28;20220;-92
2022/11/20 08:17:45;;;;;;;59.60;26.03;;;6.60;99.90;;;;;;5054347;28;20206;-92
2022/11/20 08:20:12;;;;;;;64.30;27.70;;;6.60;99.90;;;;;;5053780;28;20206;-91
2022/11/20 08:22:39;;;;;;;60.03;26.87;;;6.70;99.90;;;;;;5054515;28;20213;-92
2022/11/20 08:25:06;;;;;;;54.97;25.07;;;6.70;99.90;;;;;;5054857;28;20657;-91
2022/11/20 08:27:33;;;;;;;57.57;26.83;;;6.60;99.90;;;;;;5054614;28;20689;-92
2022/11/20 08:30:00;;;;;;;57.37;25.90;;;6.70;99.90;;;;;;5054529;28;20202;-92
2022/11/20 08:32:28;;;;;;;62.47;25.83;;;6.70;99.90;;;;;;5054636;28;20191;-91
2022/11/20 08:34:55;;;;;;;62.10;26.37;;;6.80;99.90;;;;;;5054649;28;20662;-92
2022/11/20 08:37:22;;;;;;;54.83;24.43;;;6.90;99.90;;;;;;5054854;28;20210;-91
2022/11/20 08:39:48;;;;;;;57.87;25.67;;;6.90;99.90;;;;;;5054201;28;20210;-92
2022/11/20 08:42:15;;;;;;;61.90;25.87;;;6.90;99.90;;;;;;5054305;28;20202;-93
2022/11/20 08:44:42;;;;;;;56.47;25.30;;;6.90;99.90;;;;;;5054041;28;20682;-91
2022/11/20 08:47:09;;;;;;;61.07;25.13;;;7.00;99.90;;;;;;5054355;28;20209;-92
2022/11/20 08:49:37;;;;;;;52.73;24.43;;;7.00;99.90;;;;;;5054219;28;20650;-91
2022/11/20 08:52:05;;;;;;;61.90;25.63;;;6.90;99.90;;;;;;5054229;28;20201;-92
2022/11/20 08:54:32;;;;;;;56.27;23.90;;;7.10;99.90;;;;;;5054128;28;20701;-92
2022/11/20 08:56:58;;;;;;;54.80;23.70;;;7.20;99.90;;;;;;5054486;28;20202;-91
2022/11/20 08:59:25;;;;;;;68.85;32.83;;;7.20;99.90;;;;;;5053755;28;20430;-93
2022/11/20 09:01:52;;;;;;;63.23;26.57;;;7.20;99.90;;;;;;5055726;28;20209;-91
2022/11/20 09:04:20;;;;;;;57.90;25.53;;;7.20;99.90;;;;;;5065416;28;20650;-91
2022/11/20 09:06:50;;;;;;;49.37;22.47;;;7.10;99.90;;;;;;5053815;28;20214;-92
2022/11/20 09:09:17;;;;;;;55.87;23.53;;;7.20;99.90;;;;;;5054193;28;20203;-91
2022/11/20 09:11:44;;;;;;;53.43;24.10;;;7.10;99.90;;;;;;5053664;28;20288;-92
2022/11/20 09:14:11;;;;;;;48.60;22.67;;;7.10;99.90;;;;;;5061290;28;20685;-91
2022/11/20 09:16:37;;;;;;;49.77;21.90;;;7.30;99.90;;;;;;5067026;28;20543;-92
2022/11/20 09:19:05;;;;;;;47.70;21.57;;;7.20;99.90;;;;;;5053376;28;20198;-91
2022/11/20 09:21:31;;;;;;;55.20;23.17;;;7.30;99.90;;;;;;5053895;28;20261;-91
2022/11/20 09:24:00;;;;;;;45.53;22.60;;;7.40;99.90;;;;;;5054161;28;20195;-92
2022/11/20 09:26:26;;;;;;;41.00;20.57;;;7.40;99.90;;;;;;5060360;28;20638;-92
2022/11/20 09:28:53;;;;;;;46.80;20.83;;;7.50;99.90;;;;;;5053762;28;20566;-93
2022/11/20 09:31:23;;;;;;;34.43;18.50;;;7.50;99.90;;;;;;5053877;28;20206;-91
2022/11/20 09:33:50;;;;;;;44.53;20.93;;;7.40;99.90;;;;;;5062421;28;20221;-91
2022/11/20 09:36:18;;;;;;;42.63;20.30;;;7.50;99.90;;;;;;5058512;28;20213;-90
2022/11/20 09:38:45;;;;;;;39.23;20.73;;;7.80;99.90;;;;;;5053451;28;20569;-92
2022/11/20 09:41:37;;;;;;;39.07;20.30;;;7.80;99.90;;;;;;5053560;28;20617;-92
2022/11/20 09:44:18;;;;;;;40.33;20.37;;;7.80;99.90;;;;;;5067594;28;20654;-90
2022/11/20 09:46:54;;;;;;;46.00;20.20;;;7.80;99.90;;;;;;5053296;28;20213;-91
2022/11/20 09:49:29;;;;;;;35.07;18.50;;;7.90;99.90;;;;;;5053921;28;20285;-91
2022/11/20 09:51:59;;;;;;;35.00;18.43;;;7.90;99.90;;;;;;5053096;28;20213;-91
2022/11/20 09:54:31;;;;;;;32.43;17.30;;;7.80;99.90;;;;;;5053399;28;20603;-91
2022/11/20 09:57:02;;;;;;;33.60;18.10;;;8.00;99.90;;;;;;5053446;28;20244;-91
2022/11/20 09:59:36;;;;;;;40.23;18.67;;;8.20;99.90;;;;;;5053286;28;20202;-91
2022/11/20 10:02:15;;;;;;;37.37;18.80;;;8.10;99.90;;;;;;5053313;28;20205;-93
2022/11/20 10:04:48;;;;;;;28.90;16.60;;;8.10;99.90;;;;;;5053602;28;20202;-92
2022/11/20 10:07:22;;;;;;;30.77;16.37;;;8.10;99.90;;;;;;5053573;28;20206;-93
2022/11/20 10:09:53;;;;;;;29.00;15.63;;;8.10;99.90;;;;;;5053825;28;20198;-93
2022/11/20 10:12:28;;;;;;;26.47;14.47;;;8.00;99.90;;;;;;5053340;28;20206;-93
2022/11/20 10:15:05;;;;;;;26.13;14.90;;;8.10;99.90;;;;;;5053248;28;20715;-93
2022/11/20 10:17:50;;;;;;;27.30;13.50;;;8.20;99.90;;;;;;5053911;28;20688;-90
2022/11/20 10:20:25;;;;;;;22.70;12.13;;;8.20;99.90;;;;;;5053446;28;20206;-92
2022/11/20 10:23:04;;;;;;;22.50;12.67;;;8.40;99.90;;;;;;5053164;28;20205;-91
2022/11/20 10:25:39;;;;;;;24.43;12.27;;;8.60;99.90;;;;;;5053587;28;20209;-92
2022/11/20 10:28:29;;;;;;;15.93;9.63;;;8.70;99.90;;;;;;5053472;28;20210;-92
2022/11/20 10:31:01;;;;;;;15.80;10.17;;;8.60;99.90;;;;;;5053090;28;20584;-93
2022/11/20 10:33:34;;;;;;;16.07;9.47;;;8.70;99.90;;;;;;5053368;28;20238;-92
2022/11/20 10:36:09;;;;;;;16.23;8.77;;;8.70;99.90;;;;;;5053541;28;20571;-92
2022/11/20 10:38:40;;;;;;;12.03;8.37;;;8.80;99.90;;;;;;5053409;28;20201;-92
2022/11/20 10:41:26;;;;;;;10.80;6.93;;;8.70;99.90;;;;;;5064362;28;20202;-94
2022/11/20 10:44:04;;;;;;;13.30;7.03;;;8.70;99.90;;;;;;5067648;28;20657;-94
2022/11/20 10:46:38;;;;;;;12.37;6.10;;;8.80;99.90;;;;;;5057276;28;20245;-93
2022/11/20 10:49:11;;;;;;;9.57;6.93;;;8.80;99.90;;;;;;5056864;28;20206;-93
2022/11/20 10:51:41;;;;;;;11.40;5.47;;;8.80;99.90;;;;;;5056964;28;20572;-95
2022/11/20 10:54:19;;;;;;;8.03;4.63;;;8.80;99.90;;;;;;5056435;28;20287;-92
2022/11/20 10:56:49;;;;;;;8.83;5.40;;;8.80;99.90;;;;;;5056878;28;20198;-92
2022/11/20 10:59:50;;;;;;;4.53;4.13;;;8.80;99.90;;;;;;5057025;28;20622;-93
2022/11/20 11:02:19;;;;;;;7.07;5.07;;;8.90;99.90;;;;;;5040579;28;20571;-94
2022/11/20 11:04:50;;;;;;;9.37;4.33;;;9.00;99.90;;;;;;5056669;28;20202;-92
2022/11/20 11:07:21;;;;;;;6.90;4.07;;;8.90;99.90;;;;;;5057673;28;20199;-96
2022/11/20 11:09:50;;;;;;;8.50;3.93;;;8.90;99.90;;;;;;5059583;28;20198;-96
2022/11/20 11:12:18;;;;;;;5.47;3.57;;;9.00;99.90;;;;;;5066921;28;20198;-93
2022/11/20 11:14:49;;;;;;;7.40;3.87;;;9.00;99.90;;;;;;5056014;28;20229;-94
2022/11/20 11:17:26;;;;;;;9.03;3.60;;;9.10;99.90;;;;;;5057333;28;20563;-94
2022/11/20 11:20:06;;;;;;;3.97;3.20;;;9.00;99.90;;;;;;5056558;28;20670;-96
2022/11/20 11:22:34;;;;;;;6.47;3.40;;;9.00;99.90;;;;;;5070111;28;20217;-92
2022/11/20 11:25:05;;;;;;;6.70;3.47;;;9.00;99.90;;;;;;5060574;28;20213;-89
2022/11/20 11:27:34;;;;;;;6.30;3.43;;;9.10;99.90;;;;;;5060672;28;20210;-93
2022/11/20 11:30:14;;;;;;;6.33;3.20;;;9.10;99.90;;;;;;5068715;28;20202;-92
2022/11/20 11:32:41;;;;;;;7.77;2.97;;;9.00;99.90;;;;;;5065823;28;20225;-91
2022/11/20 11:35:25;;;;;;;6.23;2.93;;;9.00;99.90;;;;;;5062452;28;20689;-92
2022/11/20 11:37:55;;;;;;;5.00;2.80;;;8.90;99.90;;;;;;5057643;28;20203;-90
2022/11/20 11:40:26;;;;;;;4.83;2.83;;;8.90;99.90;;;;;;5056618;28;20213;-92
2022/11/20 11:42:59;;;;;;;6.53;2.80;;;8.90;99.90;;;;;;5055842;28;20614;-93
2022/11/20 11:45:26;;;;;;;5.67;2.80;;;8.90;99.90;;;;;;5051513;28;20580;-93
2022/11/20 11:47:56;;;;;;;4.83;2.90;;;8.90;99.90;;;;;;5046093;28;20207;-92
2022/11/20 11:50:24;;;;;;;5.17;2.90;;;8.90;99.90;;;;;;5056146;28;20209;-94
2022/11/20 11:53:10;;;;;;;5.00;2.87;;;8.80;99.90;;;;;;5056214;28;20227;-92
2022/11/20 11:55:43;;;;;;;4.60;2.47;;;8.70;99.90;;;;;;5056481;28;20248;-91
2022/11/20 11:58:18;;;;;;;6.93;2.60;;;8.50;99.90;;;;;;5056486;28;20202;-92
2022/11/20 12:00:55;;;;;;;6.23;2.70;;;8.40;99.90;;;;;;5056351;28;20206;-92
2022/11/20 12:03:28;;;;;;;8.57;3.13;;;8.40;99.90;;;;;;5056829;28;20252;-93
2022/11/20 12:05:59;;;;;;;5.87;3.77;;;8.40;99.90;;;;;;5070401;28;20210;-92
2022/11/20 12:08:31;;;;;;;5.63;2.70;;;8.30;99.90;;;;;;5066011;28;20191;-92
2022/11/20 12:11:04;;;;;;;6.40;2.60;;;8.30;99.90;;;;;;5069530;28;20206;-92
2022/11/20 12:13:43;;;;;;;9.57;3.80;;;8.30;99.90;;;;;;5069669;28;20217;-92
2022/11/20 12:16:15;;;;;;;7.28;3.60;;;8.20;99.90;;;;;;5070514;28;20436;-93
2022/11/20 12:18:43;;;;;;;6.77;3.40;;;8.30;99.90;;;;;;5071095;28;20236;-91
2022/11/20 12:21:20;;;;;;;9.93;4.03;;;8.30;99.90;;;;;;5070677;28;20266;-92
2022/11/20 12:24:04;;;;;;;8.73;3.30;;;8.30;99.90;;;;;;5056452;28;20255;-93
2022/11/20 12:26:49;;;;;;;6.43;3.23;;;8.30;99.90;;;;;;5042482;28;20212;-93
2022/11/20 12:29:26;;;;;;;12.13;3.50;;;8.40;99.90;;;;;;5056503;28;20206;-90
2022/11/20 12:32:07;;;;;;;8.60;3.07;;;8.40;99.90;;;;;;5057210;28;20641;-93
2022/11/20 12:34:56;;;;;;;7.10;3.00;;;8.50;99.90;;;;;;5065914;28;20787;-95
2022/11/20 12:37:34;;;;;;;5.13;2.70;;;8.40;99.90;;;;;;5065063;28;20206;-93
2022/11/20 12:40:14;;;;;;;5.97;3.47;;;8.50;99.90;;;;;;5061692;28;20436;-91
2022/11/20 12:45:56;;;;;;;7.23;3.70;;;8.40;99.90;;;;;;5043114;28;20221;-94
2022/11/20 12:49:03;;;;;;;4.03;2.50;;;8.40;99.90;;;;;;5046929;28;20210;-95
2022/11/20 12:51:57;;;;;;;7.43;2.90;;;8.30;99.90;;;;;;4974466;28;20205;-96
2022/11/20 12:54:53;;;;;;;5.20;3.37;;;8.40;99.90;;;;;;5042590;28;20245;-94
2022/11/20 12:57:30;;;;;;;7.67;3.40;;;8.40;99.90;;;;;;5054720;28;20209;-96
2022/11/20 13:00:15;;;;;;;8.57;4.50;;;8.50;99.90;;;;;;5052704;28;20430;-96
2022/11/20 13:03:10;;;;;;;6.97;3.90;;;8.50;99.90;;;;;;5054711;28;20198;-95
2022/11/20 13:05:50;;;;;;;6.23;3.37;;;8.60;99.90;;;;;;5044635;28;20206;-95
2022/11/20 13:08:22;;;;;;;6.47;3.00;;;8.50;99.90;;;;;;5055673;28;20225;-89
2022/11/20 13:10:57;;;;;;;5.60;2.90;;;8.50;99.90;;;;;;5054432;28;20211;-89
2022/11/20 13:13:30;;;;;;;6.23;3.20;;;8.50;99.90;;;;;;5053749;28;20626;-88
2022/11/20 13:16:03;;;;;;;6.10;2.93;;;8.50;99.90;;;;;;5053548;28;20231;-89
2022/11/20 13:18:37;;;;;;;3.20;2.92;;;8.50;99.90;;;;;;5036915;28;20785;-89
2022/11/20 13:21:15;;;;;;;3.20;2.87;;;8.40;99.90;;;;;;5054908;28;20583;-88